sensor_id;sensor_type;location;lat;lon;timestamp;temperature;humidity
41060;DHT22;26811;53.160;8.202;2022-07-04T00:01:28;15.30;99.90
41060;DHT22;26811;53.160;8.202;2022-07-04T00:06:29;15.30;99.90
41060;DHT22;26811;53.160;8.202;2022-07-04T00:11:29;15.20;99.90
41060;DHT22;26811;53.160;8.202;2022-07-04T00:16:30;15.20;99.90
41060;DHT22;26811;53.160;8.202;2022-07-04T00:21:30;15.10;99.90
41060;DHT22;26811;53.160;8.202;2022-07-04T00:26:31;15.10;99.90
41060;DHT22;26811;53.160;8.202;2022-07-04T00:31:31;15.00;99.90
41060;DHT22;26811;53.160;8.202;2022-07-04T00:36:32;15.00;99.90
41060;DHT22;26811;53.160;8.202;2022-07-04T00:41:33;14.90;99.90
41060;DHT22;26811;53.160;8.202;2022-07-04T00:46:34;14.90;99.90
41060;DHT22;26811;53.160;8.202;2022-07-04T00:51:35;14.90;99.90
41060;DHT22;26811;53.160;8.202;2022-07-04T00:56:38;14.90;99.90
41060;DHT22;26811;53.160;8.202;2022-07-04T01:01:39;14.80;99.90
41060;DHT22;26811;53.160;8.202;2022-07-04T01:06:40;14.90;99.90
41060;DHT22;26811;53.160;8.202;2022-07-04T01:11:41;14.80;99.90
41060;DHT22;26811;53.160;8.202;2022-07-04T01:16:41;14.80;99.90
41060;DHT22;26811;53.160;8.202;2022-07-04T01:21:42;14.80;99.90
41060;DHT22;26811;53.160;8.202;2022-07-04T01:26:42;14.70;99.90
41060;DHT22;26811;53.160;8.202;2022-07-04T01:31:43;14.70;99.90
41060;DHT22;26811;53.160;8.202;2022-07-04T01:36:43;14.60;99.90
41060;DHT22;26811;53.160;8.202;2022-07-04T01:41:44;14.50;99.90
41060;DHT22;26811;53.160;8.202;2022-07-04T01:46:44;14.50;99.90
41060;DHT22;26811;53.160;8.202;2022-07-04T01:51:46;14.40;99.90
41060;DHT22;26811;53.160;8.202;2022-07-04T01:56:47;14.40;99.90
41060;DHT22;26811;53.160;8.202;2022-07-04T02:01:48;14.40;99.90
41060;DHT22;26811;53.160;8.202;2022-07-04T02:06:48;14.30;99.90
41060;DHT22;26811;53.160;8.202;2022-07-04T02:11:49;14.30;99.90
41060;DHT22;26811;53.160;8.202;2022-07-04T02:17:08;14.30;99.90
41060;DHT22;26811;53.160;8.202;2022-07-04T02:22:08;14.20;99.90
41060;DHT22;26811;53.160;8.202;2022-07-04T02:27:09;14.20;99.90
41060;DHT22;26811;53.160;8.202;2022-07-04T02:32:10;14.10;99.90
41060;DHT22;26811;53.160;8.202;2022-07-04T02:37:10;14.10;99.90
41060;DHT22;26811;53.160;8.202;2022-07-04T02:42:11;14.00;99.90
41060;DHT22;26811;53.160;8.202;2022-07-04T02:47:11;14.00;99.90
41060;DHT22;26811;53.160;8.202;2022-07-04T02:52:12;13.90;99.90
41060;DHT22;26811;53.160;8.202;2022-07-04T02:57:13;13.90;99.90
41060;DHT22;26811;53.160;8.202;2022-07-04T03:02:14;13.90;99.90
41060;DHT22;26811;53.160;8.202;2022-07-04T03:07:15;13.90;99.90
41060;DHT22;26811;53.160;8.202;2022-07-04T03:12:16;13.90;99.90
41060;DHT22;26811;53.160;8.202;2022-07-04T03:17:16;13.90;99.90
41060;DHT22;26811;53.160;8.202;2022-07-04T03:22:17;13.90;99.90
41060;DHT22;26811;53.160;8.202;2022-07-04T03:27:18;13.90;99.90
41060;DHT22;26811;53.160;8.202;2022-07-04T03:32:18;13.90;99.90
41060;DHT22;26811;53.160;8.202;2022-07-04T03:37:19;13.90;99.90
41060;DHT22;26811;53.160;8.202;2022-07-04T03:42:19;13.90;99.90
41060;DHT22;26811;53.160;8.202;2022-07-04T03:47:20;13.90;99.90
41060;DHT22;26811;53.160;8.202;2022-07-04T03:52:20;13.90;99.90
41060;DHT22;26811;53.160;8.202;2022-07-04T03:57:21;14.00;99.90
41060;DHT22;26811;53.160;8.202;2022-07-04T04:02:21;14.00;99.90
41060;DHT22;26811;53.160;8.202;2022-07-04T04:07:22;14.00;99.90
41060;DHT22;26811;53.160;8.202;2022-07-04T04:12:23;14.00;99.90
41060;DHT22;26811;53.160;8.202;2022-07-04T04:17:23;14.10;99.90
41060;DHT22;26811;53.160;8.202;2022-07-04T04:22:24;14.30;99.90
41060;DHT22;26811;53.160;8.202;2022-07-04T04:27:24;15.10;99.90
41060;DHT22;26811;53.160;8.202;2022-07-04T04:32:25;18.20;99.90
41060;DHT22;26811;53.160;8.202;2022-07-04T04:37:25;21.00;99.90
41060;DHT22;26811;53.160;8.202;2022-07-04T04:42:26;22.80;99.90
41060;DHT22;26811;53.160;8.202;2022-07-04T04:47:26;23.20;99.20
41060;DHT22;26811;53.160;8.202;2022-07-04T04:52:27;22.30;99.60
41060;DHT22;26811;53.160;8.202;2022-07-04T04:57:28;21.80;99.90
41060;DHT22;26811;53.160;8.202;2022-07-04T05:02:29;21.20;99.90
41060;DHT22;26811;53.160;8.202;2022-07-04T05:07:29;20.60;99.90
41060;DHT22;26811;53.160;8.202;2022-07-04T05:12:30;19.60;99.90
41060;DHT22;26811;53.160;8.202;2022-07-04T05:17:31;19.10;99.90
41060;DHT22;26811;53.160;8.202;2022-07-04T05:22:31;19.60;99.90
41060;DHT22;26811;53.160;8.202;2022-07-04T05:27:32;21.10;99.90
41060;DHT22;26811;53.160;8.202;2022-07-04T05:32:32;20.30;99.90
41060;DHT22;26811;53.160;8.202;2022-07-04T05:37:33;21.10;99.90
41060;DHT22;26811;53.160;8.202;2022-07-04T05:42:34;21.70;99.90
41060;DHT22;26811;53.160;8.202;2022-07-04T05:47:35;22.20;99.50
41060;DHT22;26811;53.160;8.202;2022-07-04T05:52:35;22.70;98.60
41060;DHT22;26811;53.160;8.202;2022-07-04T05:57:36;22.70;98.90
41060;DHT22;26811;53.160;8.202;2022-07-04T06:02:37;25.30;95.50
41060;DHT22;26811;53.160;8.202;2022-07-04T06:07:37;26.40;93.00
41060;DHT22;26811;53.160;8.202;2022-07-04T06:12:38;25.90;92.70
41060;DHT22;26811;53.160;8.202;2022-07-04T06:17:38;24.20;93.80
41060;DHT22;26811;53.160;8.202;2022-07-04T06:22:46;22.20;97.30
41060;DHT22;26811;53.160;8.202;2022-07-04T06:27:48;22.10;98.70
41060;DHT22;26811;53.160;8.202;2022-07-04T06:32:51;24.60;95.10
41060;DHT22;26811;53.160;8.202;2022-07-04T06:37:52;24.50;94.60
41060;DHT22;26811;53.160;8.202;2022-07-04T06:42:53;23.80;95.70
41060;DHT22;26811;53.160;8.202;2022-07-04T06:47:53;23.00;97.10
41060;DHT22;26811;53.160;8.202;2022-07-04T06:52:54;24.20;95.60
41060;DHT22;26811;53.160;8.202;2022-07-04T06:57:54;25.60;94.00
41060;DHT22;26811;53.160;8.202;2022-07-04T07:02:55;26.10;92.90
41060;DHT22;26811;53.160;8.202;2022-07-04T07:07:55;27.30;91.80
41060;DHT22;26811;53.160;8.202;2022-07-04T07:12:56;27.70;90.70
41060;DHT22;26811;53.160;8.202;2022-07-04T07:17:56;27.70;90.20
41060;DHT22;26811;53.160;8.202;2022-07-04T07:22:57;27.90;85.40
41060;DHT22;26811;53.160;8.202;2022-07-04T07:27:58;28.30;85.40
41060;DHT22;26811;53.160;8.202;2022-07-04T07:32:58;28.90;82.70
41060;DHT22;26811;53.160;8.202;2022-07-04T07:37:59;29.10;82.00
41060;DHT22;26811;53.160;8.202;2022-07-04T07:42:59;29.40;81.00
41060;DHT22;26811;53.160;8.202;2022-07-04T07:48:00;29.00;84.20
41060;DHT22;26811;53.160;8.202;2022-07-04T07:53:01;29.30;80.00
41060;DHT22;26811;53.160;8.202;2022-07-04T07:58:01;28.80;81.90
41060;DHT22;26811;53.160;8.202;2022-07-04T08:03:02;28.20;83.40
41060;DHT22;26811;53.160;8.202;2022-07-04T08:08:21;28.50;81.70
41060;DHT22;26811;53.160;8.202;2022-07-04T08:13:23;27.50;82.00
41060;DHT22;26811;53.160;8.202;2022-07-04T08:18:24;27.50;81.20
41060;DHT22;26811;53.160;8.202;2022-07-04T08:23:30;27.20;83.10
41060;DHT22;26811;53.160;8.202;2022-07-04T08:28:31;26.80;84.80
41060;DHT22;26811;53.160;8.202;2022-07-04T08:33:32;26.20;84.70
41060;DHT22;26811;53.160;8.202;2022-07-04T08:38:33;26.40;86.90
41060;DHT22;26811;53.160;8.202;2022-07-04T08:43:33;27.20;83.60
41060;DHT22;26811;53.160;8.202;2022-07-04T08:48:37;26.70;84.90
41060;DHT22;26811;53.160;8.202;2022-07-04T08:53:38;26.90;84.60
41060;DHT22;26811;53.160;8.202;2022-07-04T08:58:43;26.80;83.30
41060;DHT22;26811;53.160;8.202;2022-07-04T09:03:45;27.20;84.20
41060;DHT22;26811;53.160;8.202;2022-07-04T09:08:45;26.90;85.90
41060;DHT22;26811;53.160;8.202;2022-07-04T09:13:46;25.90;83.70
41060;DHT22;26811;53.160;8.202;2022-07-04T09:18:47;24.70;87.40
41060;DHT22;26811;53.160;8.202;2022-07-04T09:23:48;24.00;90.00
41060;DHT22;26811;53.160;8.202;2022-07-04T09:28:52;23.90;91.10
41060;DHT22;26811;53.160;8.202;2022-07-04T09:34:02;24.70;90.30
41060;DHT22;26811;53.160;8.202;2022-07-04T09:39:17;25.20;91.30
41060;DHT22;26811;53.160;8.202;2022-07-04T09:44:21;26.30;88.20
41060;DHT22;26811;53.160;8.202;2022-07-04T09:49:22;26.90;85.20
41060;DHT22;26811;53.160;8.202;2022-07-04T09:54:29;26.70;81.90
41060;DHT22;26811;53.160;8.202;2022-07-04T09:59:32;26.50;85.30
41060;DHT22;26811;53.160;8.202;2022-07-04T10:09:46;25.60;88.10
41060;DHT22;26811;53.160;8.202;2022-07-04T10:14:46;25.70;84.20
41060;DHT22;26811;53.160;8.202;2022-07-04T10:19:47;26.00;82.00
41060;DHT22;26811;53.160;8.202;2022-07-04T10:24:50;26.10;81.20
41060;DHT22;26811;53.160;8.202;2022-07-04T10:29:51;25.30;86.50
41060;DHT22;26811;53.160;8.202;2022-07-04T10:34:52;25.50;86.30
41060;DHT22;26811;53.160;8.202;2022-07-04T10:39:53;25.40;87.00
41060;DHT22;26811;53.160;8.202;2022-07-04T10:45:00;24.90;86.20
41060;DHT22;26811;53.160;8.202;2022-07-04T10:50:01;24.40;87.30
41060;DHT22;26811;53.160;8.202;2022-07-04T10:55:10;25.10;83.10
41060;DHT22;26811;53.160;8.202;2022-07-04T11:00:12;25.40;84.20
41060;DHT22;26811;53.160;8.202;2022-07-04T11:05:13;25.00;86.80
41060;DHT22;26811;53.160;8.202;2022-07-04T11:20:26;25.10;86.20
41060;DHT22;26811;53.160;8.202;2022-07-04T11:25:27;25.00;83.60
41060;DHT22;26811;53.160;8.202;2022-07-04T11:30:27;24.90;85.70
41060;DHT22;26811;53.160;8.202;2022-07-04T11:35:28;24.80;88.10
41060;DHT22;26811;53.160;8.202;2022-07-04T11:40:44;25.10;84.10
41060;DHT22;26811;53.160;8.202;2022-07-04T11:46:10;25.20;86.40
41060;DHT22;26811;53.160;8.202;2022-07-04T11:51:19;25.30;87.70
41060;DHT22;26811;53.160;8.202;2022-07-04T11:56:19;24.90;89.70
41060;DHT22;26811;53.160;8.202;2022-07-04T12:01:29;23.70;90.90
41060;DHT22;26811;53.160;8.202;2022-07-04T12:06:30;23.30;91.90
41060;DHT22;26811;53.160;8.202;2022-07-04T12:11:54;23.90;91.10
41060;DHT22;26811;53.160;8.202;2022-07-04T12:17:29;24.20;90.40
41060;DHT22;26811;53.160;8.202;2022-07-04T12:22:48;23.90;91.30
41060;DHT22;26811;53.160;8.202;2022-07-04T12:27:54;23.60;91.20
41060;DHT22;26811;53.160;8.202;2022-07-04T12:33:08;23.70;90.70
41060;DHT22;26811;53.160;8.202;2022-07-04T12:43:14;24.40;90.20
41060;DHT22;26811;53.160;8.202;2022-07-04T12:48:16;24.60;88.60
41060;DHT22;26811;53.160;8.202;2022-07-04T12:53:17;25.10;88.90
41060;DHT22;26811;53.160;8.202;2022-07-04T12:58:18;24.70;85.90
41060;DHT22;26811;53.160;8.202;2022-07-04T13:03:18;24.50;87.50
41060;DHT22;26811;53.160;8.202;2022-07-04T13:08:20;24.40;88.70
41060;DHT22;26811;53.160;8.202;2022-07-04T13:13:20;24.40;88.70
41060;DHT22;26811;53.160;8.202;2022-07-04T13:18:21;24.20;90.50
41060;DHT22;26811;53.160;8.202;2022-07-04T13:23:21;24.40;90.30
41060;DHT22;26811;53.160;8.202;2022-07-04T13:28:22;24.40;90.40
41060;DHT22;26811;53.160;8.202;2022-07-04T13:33:22;24.30;90.10
41060;DHT22;26811;53.160;8.202;2022-07-04T13:38:23;24.40;88.70
41060;DHT22;26811;53.160;8.202;2022-07-04T13:43:24;24.60;86.70
41060;DHT22;26811;53.160;8.202;2022-07-04T13:48:25;24.90;84.60
41060;DHT22;26811;53.160;8.202;2022-07-04T13:53:25;24.60;86.40
41060;DHT22;26811;53.160;8.202;2022-07-04T13:58:26;24.60;89.60
41060;DHT22;26811;53.160;8.202;2022-07-04T14:03:26;24.70;86.10
41060;DHT22;26811;53.160;8.202;2022-07-04T14:08:27;24.80;86.20
41060;DHT22;26811;53.160;8.202;2022-07-04T14:13:28;24.30;85.90
41060;DHT22;26811;53.160;8.202;2022-07-04T14:18:28;24.20;87.40
41060;DHT22;26811;53.160;8.202;2022-07-04T14:23:29;23.90;86.80
41060;DHT22;26811;53.160;8.202;2022-07-04T14:28:42;24.10;86.80
41060;DHT22;26811;53.160;8.202;2022-07-04T14:33:44;24.20;87.80
41060;DHT22;26811;53.160;8.202;2022-07-04T14:38:45;24.20;87.90
41060;DHT22;26811;53.160;8.202;2022-07-04T14:43:45;24.10;87.80
41060;DHT22;26811;53.160;8.202;2022-07-04T14:48:46;24.20;86.90
41060;DHT22;26811;53.160;8.202;2022-07-04T14:53:46;23.90;88.00
41060;DHT22;26811;53.160;8.202;2022-07-04T14:58:47;24.10;87.80
41060;DHT22;26811;53.160;8.202;2022-07-04T15:03:48;24.00;87.00
41060;DHT22;26811;53.160;8.202;2022-07-04T15:08:48;23.80;87.80
41060;DHT22;26811;53.160;8.202;2022-07-04T15:13:49;23.40;86.00
41060;DHT22;26811;53.160;8.202;2022-07-04T15:18:51;23.30;86.60
41060;DHT22;26811;53.160;8.202;2022-07-04T15:23:51;23.20;87.10
41060;DHT22;26811;53.160;8.202;2022-07-04T15:29:11;23.40;89.50
41060;DHT22;26811;53.160;8.202;2022-07-04T15:34:12;23.40;89.00
41060;DHT22;26811;53.160;8.202;2022-07-04T15:39:14;23.60;87.90
41060;DHT22;26811;53.160;8.202;2022-07-04T15:44:15;23.60;87.70
41060;DHT22;26811;53.160;8.202;2022-07-04T15:49:17;23.70;87.90
41060;DHT22;26811;53.160;8.202;2022-07-04T15:54:17;23.70;88.20
41060;DHT22;26811;53.160;8.202;2022-07-04T15:59:18;24.00;87.20
41060;DHT22;26811;53.160;8.202;2022-07-04T16:04:19;24.00;87.20
41060;DHT22;26811;53.160;8.202;2022-07-04T16:09:19;24.00;85.50
41060;DHT22;26811;53.160;8.202;2022-07-04T16:14:20;23.90;85.10
41060;DHT22;26811;53.160;8.202;2022-07-04T16:19:21;23.50;86.00
41060;DHT22;26811;53.160;8.202;2022-07-04T16:24:21;23.20;85.90
41060;DHT22;26811;53.160;8.202;2022-07-04T16:29:22;23.20;87.10
41060;DHT22;26811;53.160;8.202;2022-07-04T16:34:23;23.00;87.00
41060;DHT22;26811;53.160;8.202;2022-07-04T16:39:23;22.60;88.10
41060;DHT22;26811;53.160;8.202;2022-07-04T16:44:24;22.60;89.60
41060;DHT22;26811;53.160;8.202;2022-07-04T16:49:25;22.70;90.00
41060;DHT22;26811;53.160;8.202;2022-07-04T16:54:25;22.60;89.90
41060;DHT22;26811;53.160;8.202;2022-07-04T16:59:26;22.30;88.80
41060;DHT22;26811;53.160;8.202;2022-07-04T17:04:27;22.10;91.10
41060;DHT22;26811;53.160;8.202;2022-07-04T17:09:27;22.20;91.40
41060;DHT22;26811;53.160;8.202;2022-07-04T17:14:28;22.10;90.30
41060;DHT22;26811;53.160;8.202;2022-07-04T17:19:29;22.00;90.20
41060;DHT22;26811;53.160;8.202;2022-07-04T17:24:29;21.80;90.80
41060;DHT22;26811;53.160;8.202;2022-07-04T17:29:30;21.70;90.80
41060;DHT22;26811;53.160;8.202;2022-07-04T17:34:30;21.70;91.10
41060;DHT22;26811;53.160;8.202;2022-07-04T17:39:31;21.60;90.80
41060;DHT22;26811;53.160;8.202;2022-07-04T17:44:31;21.50;91.00
41060;DHT22;26811;53.160;8.202;2022-07-04T17:49:33;21.40;91.00
41060;DHT22;26811;53.160;8.202;2022-07-04T17:54:33;21.20;91.20
41060;DHT22;26811;53.160;8.202;2022-07-04T17:59:34;20.90;91.60
41060;DHT22;26811;53.160;8.202;2022-07-04T18:04:34;20.60;92.20
41060;DHT22;26811;53.160;8.202;2022-07-04T18:09:35;20.40;92.80
41060;DHT22;26811;53.160;8.202;2022-07-04T18:14:36;20.30;94.00
41060;DHT22;26811;53.160;8.202;2022-07-04T18:19:36;20.20;94.60
41060;DHT22;26811;53.160;8.202;2022-07-04T18:24:37;20.10;95.30
41060;DHT22;26811;53.160;8.202;2022-07-04T18:29:37;20.00;95.60
41060;DHT22;26811;53.160;8.202;2022-07-04T18:34:38;19.90;95.70
41060;DHT22;26811;53.160;8.202;2022-07-04T18:39:39;19.70;95.70
41060;DHT22;26811;53.160;8.202;2022-07-04T18:44:40;19.60;96.00
41060;DHT22;26811;53.160;8.202;2022-07-04T18:49:40;19.40;96.70
41060;DHT22;26811;53.160;8.202;2022-07-04T18:54:42;19.40;96.90
41060;DHT22;26811;53.160;8.202;2022-07-04T18:59:42;19.30;97.10
41060;DHT22;26811;53.160;8.202;2022-07-04T19:04:44;19.20;97.60
41060;DHT22;26811;53.160;8.202;2022-07-04T19:09:45;19.00;97.80
41060;DHT22;26811;53.160;8.202;2022-07-04T19:14:45;19.00;98.20
41060;DHT22;26811;53.160;8.202;2022-07-04T19:19:46;18.80;98.50
41060;DHT22;26811;53.160;8.202;2022-07-04T19:24:47;18.70;98.50
41060;DHT22;26811;53.160;8.202;2022-07-04T19:29:47;18.60;98.90
41060;DHT22;26811;53.160;8.202;2022-07-04T19:34:48;18.50;99.20
41060;DHT22;26811;53.160;8.202;2022-07-04T19:39:49;18.50;99.60
41060;DHT22;26811;53.160;8.202;2022-07-04T19:44:51;18.30;99.80
41060;DHT22;26811;53.160;8.202;2022-07-04T19:49:52;18.20;99.90
41060;DHT22;26811;53.160;8.202;2022-07-04T19:55:12;18.10;99.90
41060;DHT22;26811;53.160;8.202;2022-07-04T20:00:14;18.00;99.90
41060;DHT22;26811;53.160;8.202;2022-07-04T20:05:15;18.00;99.90
41060;DHT22;26811;53.160;8.202;2022-07-04T20:10:16;17.90;99.90
41060;DHT22;26811;53.160;8.202;2022-07-04T20:15:16;17.70;99.90
41060;DHT22;26811;53.160;8.202;2022-07-04T20:20:17;17.50;99.90
41060;DHT22;26811;53.160;8.202;2022-07-04T20:25:18;17.30;99.90
41060;DHT22;26811;53.160;8.202;2022-07-04T20:30:19;17.10;99.90
41060;DHT22;26811;53.160;8.202;2022-07-04T20:35:19;17.00;99.90
41060;DHT22;26811;53.160;8.202;2022-07-04T20:40:20;16.80;99.90
41060;DHT22;26811;53.160;8.202;2022-07-04T20:45:21;16.70;99.90
41060;DHT22;26811;53.160;8.202;2022-07-04T20:50:21;16.60;99.90
41060;DHT22;26811;53.160;8.202;2022-07-04T20:55:23;16.40;99.90
41060;DHT22;26811;53.160;8.202;2022-07-04T21:00:23;16.40;99.90
41060;DHT22;26811;53.160;8.202;2022-07-04T21:05:24;16.30;99.90
41060;DHT22;26811;53.160;8.202;2022-07-04T21:10:26;16.30;99.90
41060;DHT22;26811;53.160;8.202;2022-07-04T21:15:26;16.20;99.90
41060;DHT22;26811;53.160;8.202;2022-07-04T21:20:28;16.20;99.90
41060;DHT22;26811;53.160;8.202;2022-07-04T21:25:29;16.10;99.90
41060;DHT22;26811;53.160;8.202;2022-07-04T21:30:30;16.00;99.90
41060;DHT22;26811;53.160;8.202;2022-07-04T21:35:30;16.00;99.90
41060;DHT22;26811;53.160;8.202;2022-07-04T21:40:31;15.90;99.90
41060;DHT22;26811;53.160;8.202;2022-07-04T21:45:32;15.90;99.90
41060;DHT22;26811;53.160;8.202;2022-07-04T21:50:33;15.90;99.90
41060;DHT22;26811;53.160;8.202;2022-07-04T21:55:33;15.80;99.90
41060;DHT22;26811;53.160;8.202;2022-07-04T22:00:34;15.80;99.90
41060;DHT22;26811;53.160;8.202;2022-07-04T22:05:35;15.80;99.90
41060;DHT22;26811;53.160;8.202;2022-07-04T22:10:36;15.80;99.90
41060;DHT22;26811;53.160;8.202;2022-07-04T22:15:36;15.80;99.90
41060;DHT22;26811;53.160;8.202;2022-07-04T22:20:37;15.70;99.90
41060;DHT22;26811;53.160;8.202;2022-07-04T22:25:38;15.60;99.90
41060;DHT22;26811;53.160;8.202;2022-07-04T22:30:38;15.60;99.90
41060;DHT22;26811;53.160;8.202;2022-07-04T22:35:39;15.50;99.90
41060;DHT22;26811;53.160;8.202;2022-07-04T22:40:40;15.50;99.90
41060;DHT22;26811;53.160;8.202;2022-07-04T22:45:40;15.50;99.90
41060;DHT22;26811;53.160;8.202;2022-07-04T22:50:41;15.40;99.90
41060;DHT22;26811;53.160;8.202;2022-07-04T22:56:00;15.40;99.90
41060;DHT22;26811;53.160;8.202;2022-07-04T23:01:01;15.30;99.90
41060;DHT22;26811;53.160;8.202;2022-07-04T23:06:02;15.30;99.90
41060;DHT22;26811;53.160;8.202;2022-07-04T23:11:02;15.30;99.90
41060;DHT22;26811;53.160;8.202;2022-07-04T23:16:03;15.30;99.90
41060;DHT22;26811;53.160;8.202;2022-07-04T23:21:05;15.20;99.90
41060;DHT22;26811;53.160;8.202;2022-07-04T23:26:05;15.10;99.90
41060;DHT22;26811;53.160;8.202;2022-07-04T23:31:06;15.10;99.90
41060;DHT22;26811;53.160;8.202;2022-07-04T23:36:07;15.00;99.90
41060;DHT22;26811;53.160;8.202;2022-07-04T23:41:07;15.00;99.90
41060;DHT22;26811;53.160;8.202;2022-07-04T23:46:08;14.90;99.90
41060;DHT22;26811;53.160;8.202;2022-07-04T23:51:09;14.90;99.90
41060;DHT22;26811;53.160;8.202;2022-07-04T23:56:09;14.80;99.90
